sensor_id;sensor_type;location;lat;lon;timestamp;P1;durP1;ratioP1;P2;durP2;ratioP2
30647;SDS011;17683;53.360;9.736;2023-04-15T00:01:20;14.18;;;9.30;;
30647;SDS011;17683;53.360;9.736;2023-04-15T00:03:46;12.90;;;9.65;;
30647;SDS011;17683;53.360;9.736;2023-04-15T00:06:14;12.23;;;8.93;;
30647;SDS011;17683;53.360;9.736;2023-04-15T00:08:40;12.73;;;8.43;;
30647;SDS011;17683;53.360;9.736;2023-04-15T00:11:06;12.23;;;8.63;;
30647;SDS011;17683;53.360;9.736;2023-04-15T00:13:32;14.15;;;9.98;;
30647;SDS011;17683;53.360;9.736;2023-04-15T00:15:58;12.63;;;9.18;;
30647;SDS011;17683;53.360;9.736;2023-04-15T00:18:24;13.43;;;9.45;;
30647;SDS011;17683;53.360;9.736;2023-04-15T00:20:50;10.60;;;8.38;;
30647;SDS011;17683;53.360;9.736;2023-04-15T00:23:16;10.23;;;8.15;;
30647;SDS011;17683;53.360;9.736;2023-04-15T00:25:42;10.05;;;7.45;;
30647;SDS011;17683;53.360;9.736;2023-04-15T00:28:08;10.93;;;6.90;;
30647;SDS011;17683;53.360;9.736;2023-04-15T00:30:34;9.73;;;6.65;;
30647;SDS011;17683;53.360;9.736;2023-04-15T00:33:00;8.57;;;6.55;;
30647;SDS011;17683;53.360;9.736;2023-04-15T00:35:28;7.20;;;6.20;;
30647;SDS011;17683;53.360;9.736;2023-04-15T00:37:58;6.95;;;5.50;;
30647;SDS011;17683;53.360;9.736;2023-04-15T00:40:24;6.93;;;5.55;;
30647;SDS011;17683;53.360;9.736;2023-04-15T00:42:50;7.63;;;5.35;;
30647;SDS011;17683;53.360;9.736;2023-04-15T00:45:16;6.47;;;5.20;;
30647;SDS011;17683;53.360;9.736;2023-04-15T00:47:43;8.50;;;4.95;;
30647;SDS011;17683;53.360;9.736;2023-04-15T00:50:09;8.10;;;5.03;;
30647;SDS011;17683;53.360;9.736;2023-04-15T00:52:36;7.80;;;4.90;;
30647;SDS011;17683;53.360;9.736;2023-04-15T00:55:03;7.07;;;5.40;;
30647;SDS011;17683;53.360;9.736;2023-04-15T00:57:29;8.18;;;6.18;;
30647;SDS011;17683;53.360;9.736;2023-04-15T00:59:55;7.47;;;5.50;;
30647;SDS011;17683;53.360;9.736;2023-04-15T01:02:22;7.18;;;5.90;;
30647;SDS011;17683;53.360;9.736;2023-04-15T01:04:48;10.55;;;5.85;;
30647;SDS011;17683;53.360;9.736;2023-04-15T01:07:14;5.78;;;5.13;;
30647;SDS011;17683;53.360;9.736;2023-04-15T01:09:40;5.95;;;4.80;;
30647;SDS011;17683;53.360;9.736;2023-04-15T01:12:06;7.97;;;5.95;;
30647;SDS011;17683;53.360;9.736;2023-04-15T01:14:34;7.00;;;5.63;;
30647;SDS011;17683;53.360;9.736;2023-04-15T01:17:00;8.23;;;6.15;;
30647;SDS011;17683;53.360;9.736;2023-04-15T01:19:26;9.02;;;6.20;;
30647;SDS011;17683;53.360;9.736;2023-04-15T01:21:52;8.15;;;6.00;;
30647;SDS011;17683;53.360;9.736;2023-04-15T01:24:19;7.43;;;6.05;;
30647;SDS011;17683;53.360;9.736;2023-04-15T01:26:45;7.22;;;6.05;;
30647;SDS011;17683;53.360;9.736;2023-04-15T01:29:11;7.50;;;6.28;;
30647;SDS011;17683;53.360;9.736;2023-04-15T01:31:37;7.97;;;6.07;;
30647;SDS011;17683;53.360;9.736;2023-04-15T01:34:03;7.35;;;6.15;;
30647;SDS011;17683;53.360;9.736;2023-04-15T01:36:28;9.77;;;6.50;;
30647;SDS011;17683;53.360;9.736;2023-04-15T01:38:54;8.73;;;5.80;;
30647;SDS011;17683;53.360;9.736;2023-04-15T01:41:25;9.25;;;6.18;;
30647;SDS011;17683;53.360;9.736;2023-04-15T01:43:52;9.30;;;7.30;;
30647;SDS011;17683;53.360;9.736;2023-04-15T01:46:18;7.72;;;6.60;;
30647;SDS011;17683;53.360;9.736;2023-04-15T01:48:44;7.82;;;5.93;;
30647;SDS011;17683;53.360;9.736;2023-04-15T01:51:10;8.43;;;6.38;;
30647;SDS011;17683;53.360;9.736;2023-04-15T01:53:36;12.15;;;6.30;;
30647;SDS011;17683;53.360;9.736;2023-04-15T01:56:02;7.40;;;5.72;;
30647;SDS011;17683;53.360;9.736;2023-04-15T01:58:28;9.35;;;6.93;;
30647;SDS011;17683;53.360;9.736;2023-04-15T02:00:54;8.27;;;6.38;;
30647;SDS011;17683;53.360;9.736;2023-04-15T02:03:20;10.27;;;6.70;;
30647;SDS011;17683;53.360;9.736;2023-04-15T02:05:46;8.20;;;6.38;;
30647;SDS011;17683;53.360;9.736;2023-04-15T02:08:11;9.20;;;7.25;;
30647;SDS011;17683;53.360;9.736;2023-04-15T02:10:37;11.02;;;7.15;;
30647;SDS011;17683;53.360;9.736;2023-04-15T02:13:03;11.90;;;8.40;;
30647;SDS011;17683;53.360;9.736;2023-04-15T02:15:29;11.18;;;7.93;;
30647;SDS011;17683;53.360;9.736;2023-04-15T02:17:55;11.45;;;8.35;;
30647;SDS011;17683;53.360;9.736;2023-04-15T02:20:23;11.48;;;8.20;;
30647;SDS011;17683;53.360;9.736;2023-04-15T02:22:48;13.02;;;9.75;;
30647;SDS011;17683;53.360;9.736;2023-04-15T02:25:14;12.90;;;9.57;;
30647;SDS011;17683;53.360;9.736;2023-04-15T02:27:44;11.95;;;9.10;;
30647;SDS011;17683;53.360;9.736;2023-04-15T02:30:10;13.70;;;9.75;;
30647;SDS011;17683;53.360;9.736;2023-04-15T02:32:36;11.98;;;8.95;;
30647;SDS011;17683;53.360;9.736;2023-04-15T02:35:03;13.05;;;9.18;;
30647;SDS011;17683;53.360;9.736;2023-04-15T02:37:33;11.60;;;9.32;;
30647;SDS011;17683;53.360;9.736;2023-04-15T02:40:05;12.80;;;9.45;;
30647;SDS011;17683;53.360;9.736;2023-04-15T02:42:33;11.75;;;9.52;;
30647;SDS011;17683;53.360;9.736;2023-04-15T02:44:59;12.10;;;9.02;;
30647;SDS011;17683;53.360;9.736;2023-04-15T02:47:24;11.02;;;9.27;;
30647;SDS011;17683;53.360;9.736;2023-04-15T02:49:50;12.88;;;8.90;;
30647;SDS011;17683;53.360;9.736;2023-04-15T02:52:16;11.38;;;8.52;;
30647;SDS011;17683;53.360;9.736;2023-04-15T02:54:42;11.32;;;9.25;;
30647;SDS011;17683;53.360;9.736;2023-04-15T02:57:08;9.35;;;7.70;;
30647;SDS011;17683;53.360;9.736;2023-04-15T02:59:35;11.63;;;9.05;;
30647;SDS011;17683;53.360;9.736;2023-04-15T03:02:01;11.02;;;8.52;;
30647;SDS011;17683;53.360;9.736;2023-04-15T03:04:27;10.48;;;8.60;;
30647;SDS011;17683;53.360;9.736;2023-04-15T03:06:54;8.77;;;7.55;;
30647;SDS011;17683;53.360;9.736;2023-04-15T03:09:20;11.13;;;8.55;;
30647;SDS011;17683;53.360;9.736;2023-04-15T03:11:46;8.95;;;7.65;;
30647;SDS011;17683;53.360;9.736;2023-04-15T03:14:12;9.70;;;7.90;;
30647;SDS011;17683;53.360;9.736;2023-04-15T03:16:38;10.02;;;7.70;;
30647;SDS011;17683;53.360;9.736;2023-04-15T03:19:03;11.55;;;8.18;;
30647;SDS011;17683;53.360;9.736;2023-04-15T03:21:29;10.55;;;8.15;;
30647;SDS011;17683;53.360;9.736;2023-04-15T03:23:55;10.27;;;7.35;;
30647;SDS011;17683;53.360;9.736;2023-04-15T03:26:25;9.43;;;7.43;;
30647;SDS011;17683;53.360;9.736;2023-04-15T03:28:55;8.73;;;7.10;;
30647;SDS011;17683;53.360;9.736;2023-04-15T03:31:21;10.05;;;7.90;;
30647;SDS011;17683;53.360;9.736;2023-04-15T03:33:47;10.05;;;7.97;;
30647;SDS011;17683;53.360;9.736;2023-04-15T03:36:12;10.65;;;7.50;;
30647;SDS011;17683;53.360;9.736;2023-04-15T03:38:38;10.35;;;7.30;;
30647;SDS011;17683;53.360;9.736;2023-04-15T03:41:04;9.40;;;8.30;;
30647;SDS011;17683;53.360;9.736;2023-04-15T03:43:30;9.55;;;8.30;;
30647;SDS011;17683;53.360;9.736;2023-04-15T03:45:55;9.52;;;7.30;;
30647;SDS011;17683;53.360;9.736;2023-04-15T03:48:21;10.20;;;8.02;;
30647;SDS011;17683;53.360;9.736;2023-04-15T03:50:47;11.50;;;8.40;;
30647;SDS011;17683;53.360;9.736;2023-04-15T03:53:12;9.95;;;8.13;;
30647;SDS011;17683;53.360;9.736;2023-04-15T03:55:38;10.68;;;7.40;;
30647;SDS011;17683;53.360;9.736;2023-04-15T03:58:04;10.13;;;8.50;;
30647;SDS011;17683;53.360;9.736;2023-04-15T04:00:30;10.23;;;7.97;;
30647;SDS011;17683;53.360;9.736;2023-04-15T04:02:56;8.90;;;7.90;;
30647;SDS011;17683;53.360;9.736;2023-04-15T04:05:22;10.85;;;8.40;;
30647;SDS011;17683;53.360;9.736;2023-04-15T04:07:48;10.23;;;8.05;;
30647;SDS011;17683;53.360;9.736;2023-04-15T04:10:13;10.38;;;8.57;;
30647;SDS011;17683;53.360;9.736;2023-04-15T04:12:39;10.77;;;8.70;;
30647;SDS011;17683;53.360;9.736;2023-04-15T04:15:05;15.38;;;9.65;;
30647;SDS011;17683;53.360;9.736;2023-04-15T04:17:32;10.77;;;8.82;;
30647;SDS011;17683;53.360;9.736;2023-04-15T04:19:58;12.93;;;9.43;;
30647;SDS011;17683;53.360;9.736;2023-04-15T04:22:24;11.07;;;8.88;;
30647;SDS011;17683;53.360;9.736;2023-04-15T04:24:50;11.63;;;8.98;;
30647;SDS011;17683;53.360;9.736;2023-04-15T04:27:16;12.02;;;9.40;;
30647;SDS011;17683;53.360;9.736;2023-04-15T04:29:41;10.00;;;8.32;;
30647;SDS011;17683;53.360;9.736;2023-04-15T04:32:07;12.02;;;9.48;;
30647;SDS011;17683;53.360;9.736;2023-04-15T04:34:33;11.95;;;9.43;;
30647;SDS011;17683;53.360;9.736;2023-04-15T04:36:59;10.25;;;8.60;;
30647;SDS011;17683;53.360;9.736;2023-04-15T04:39:25;10.10;;;8.23;;
30647;SDS011;17683;53.360;9.736;2023-04-15T04:41:50;10.40;;;8.07;;
30647;SDS011;17683;53.360;9.736;2023-04-15T04:44:16;10.80;;;8.35;;
30647;SDS011;17683;53.360;9.736;2023-04-15T04:46:42;11.70;;;8.68;;
30647;SDS011;17683;53.360;9.736;2023-04-15T04:49:08;11.60;;;8.50;;
30647;SDS011;17683;53.360;9.736;2023-04-15T04:51:34;10.05;;;8.07;;
30647;SDS011;17683;53.360;9.736;2023-04-15T04:54:00;10.48;;;8.23;;
30647;SDS011;17683;53.360;9.736;2023-04-15T04:56:26;10.32;;;9.02;;
30647;SDS011;17683;53.360;9.736;2023-04-15T04:58:51;10.82;;;8.95;;
30647;SDS011;17683;53.360;9.736;2023-04-15T05:01:17;9.90;;;7.63;;
30647;SDS011;17683;53.360;9.736;2023-04-15T05:03:43;11.82;;;8.90;;
30647;SDS011;17683;53.360;9.736;2023-04-15T05:06:09;10.38;;;8.38;;
30647;SDS011;17683;53.360;9.736;2023-04-15T05:08:35;11.77;;;9.27;;
30647;SDS011;17683;53.360;9.736;2023-04-15T05:11:01;11.07;;;8.65;;
30647;SDS011;17683;53.360;9.736;2023-04-15T05:13:27;10.10;;;8.15;;
30647;SDS011;17683;53.360;9.736;2023-04-15T05:15:54;9.85;;;8.57;;
30647;SDS011;17683;53.360;9.736;2023-04-15T05:18:19;10.80;;;8.63;;
30647;SDS011;17683;53.360;9.736;2023-04-15T05:20:45;11.30;;;9.70;;
30647;SDS011;17683;53.360;9.736;2023-04-15T05:23:11;10.05;;;8.35;;
30647;SDS011;17683;53.360;9.736;2023-04-15T05:25:36;10.30;;;8.93;;
30647;SDS011;17683;53.360;9.736;2023-04-15T05:28:02;11.68;;;8.50;;
30647;SDS011;17683;53.360;9.736;2023-04-15T05:30:31;11.15;;;9.50;;
30647;SDS011;17683;53.360;9.736;2023-04-15T05:32:57;10.48;;;8.68;;
30647;SDS011;17683;53.360;9.736;2023-04-15T05:35:22;10.05;;;8.32;;
30647;SDS011;17683;53.360;9.736;2023-04-15T05:37:48;9.93;;;8.07;;
30647;SDS011;17683;53.360;9.736;2023-04-15T05:40:14;10.80;;;9.13;;
30647;SDS011;17683;53.360;9.736;2023-04-15T05:42:40;11.57;;;9.18;;
30647;SDS011;17683;53.360;9.736;2023-04-15T05:45:06;14.10;;;11.07;;
30647;SDS011;17683;53.360;9.736;2023-04-15T05:47:34;13.15;;;9.88;;
30647;SDS011;17683;53.360;9.736;2023-04-15T05:50:01;12.38;;;9.32;;
30647;SDS011;17683;53.360;9.736;2023-04-15T05:52:27;14.93;;;10.73;;
30647;SDS011;17683;53.360;9.736;2023-04-15T05:54:53;17.30;;;10.57;;
30647;SDS011;17683;53.360;9.736;2023-04-15T05:57:18;13.85;;;10.63;;
30647;SDS011;17683;53.360;9.736;2023-04-15T05:59:44;15.57;;;11.60;;
30647;SDS011;17683;53.360;9.736;2023-04-15T06:02:10;16.13;;;11.55;;
30647;SDS011;17683;53.360;9.736;2023-04-15T06:04:37;15.55;;;12.75;;
30647;SDS011;17683;53.360;9.736;2023-04-15T06:07:03;18.73;;;13.35;;
30647;SDS011;17683;53.360;9.736;2023-04-15T06:09:29;18.23;;;12.23;;
30647;SDS011;17683;53.360;9.736;2023-04-15T06:11:55;20.13;;;13.02;;
30647;SDS011;17683;53.360;9.736;2023-04-15T06:14:23;19.92;;;13.13;;
30647;SDS011;17683;53.360;9.736;2023-04-15T06:16:49;23.35;;;15.48;;
30647;SDS011;17683;53.360;9.736;2023-04-15T06:19:15;20.67;;;13.88;;
30647;SDS011;17683;53.360;9.736;2023-04-15T06:21:41;22.50;;;15.20;;
30647;SDS011;17683;53.360;9.736;2023-04-15T06:24:06;23.48;;;14.80;;
30647;SDS011;17683;53.360;9.736;2023-04-15T06:26:32;26.15;;;16.90;;
30647;SDS011;17683;53.360;9.736;2023-04-15T06:28:58;25.02;;;16.80;;
30647;SDS011;17683;53.360;9.736;2023-04-15T06:31:23;29.50;;;16.92;;
30647;SDS011;17683;53.360;9.736;2023-04-15T06:33:49;27.55;;;17.02;;
30647;SDS011;17683;53.360;9.736;2023-04-15T06:36:15;29.35;;;17.45;;
30647;SDS011;17683;53.360;9.736;2023-04-15T06:38:41;28.30;;;18.80;;
30647;SDS011;17683;53.360;9.736;2023-04-15T06:41:06;30.90;;;19.70;;
30647;SDS011;17683;53.360;9.736;2023-04-15T06:43:32;31.95;;;19.55;;
30647;SDS011;17683;53.360;9.736;2023-04-15T06:45:58;30.02;;;19.40;;
30647;SDS011;17683;53.360;9.736;2023-04-15T06:48:23;31.38;;;19.08;;
30647;SDS011;17683;53.360;9.736;2023-04-15T06:50:49;30.08;;;18.73;;
30647;SDS011;17683;53.360;9.736;2023-04-15T06:53:15;29.45;;;19.80;;
30647;SDS011;17683;53.360;9.736;2023-04-15T06:55:41;33.72;;;22.20;;
30647;SDS011;17683;53.360;9.736;2023-04-15T06:58:07;33.85;;;21.17;;
30647;SDS011;17683;53.360;9.736;2023-04-15T07:00:32;33.55;;;22.90;;
30647;SDS011;17683;53.360;9.736;2023-04-15T07:03:01;39.80;;;24.13;;
30647;SDS011;17683;53.360;9.736;2023-04-15T07:05:30;37.65;;;23.70;;
30647;SDS011;17683;53.360;9.736;2023-04-15T07:07:56;39.78;;;23.80;;
30647;SDS011;17683;53.360;9.736;2023-04-15T07:10:22;36.50;;;22.80;;
30647;SDS011;17683;53.360;9.736;2023-04-15T07:12:48;37.75;;;24.65;;
30647;SDS011;17683;53.360;9.736;2023-04-15T07:15:15;47.35;;;25.25;;
30647;SDS011;17683;53.360;9.736;2023-04-15T07:17:41;46.40;;;26.92;;
30647;SDS011;17683;53.360;9.736;2023-04-15T07:20:09;42.50;;;25.75;;
30647;SDS011;17683;53.360;9.736;2023-04-15T07:22:36;40.65;;;25.88;;
30647;SDS011;17683;53.360;9.736;2023-04-15T07:25:02;38.03;;;23.73;;
30647;SDS011;17683;53.360;9.736;2023-04-15T07:27:28;39.13;;;24.77;;
30647;SDS011;17683;53.360;9.736;2023-04-15T07:29:55;49.17;;;27.85;;
30647;SDS011;17683;53.360;9.736;2023-04-15T07:32:20;40.80;;;25.20;;
30647;SDS011;17683;53.360;9.736;2023-04-15T07:34:46;39.67;;;24.77;;
30647;SDS011;17683;53.360;9.736;2023-04-15T07:37:12;44.42;;;25.23;;
30647;SDS011;17683;53.360;9.736;2023-04-15T07:39:38;42.17;;;26.35;;
30647;SDS011;17683;53.360;9.736;2023-04-15T07:42:04;41.00;;;25.85;;
30647;SDS011;17683;53.360;9.736;2023-04-15T07:44:30;48.55;;;27.45;;
30647;SDS011;17683;53.360;9.736;2023-04-15T07:46:55;44.88;;;26.25;;
30647;SDS011;17683;53.360;9.736;2023-04-15T07:49:21;41.95;;;25.58;;
30647;SDS011;17683;53.360;9.736;2023-04-15T07:51:47;50.90;;;28.67;;
30647;SDS011;17683;53.360;9.736;2023-04-15T07:54:13;47.58;;;27.98;;
30647;SDS011;17683;53.360;9.736;2023-04-15T07:56:39;53.88;;;31.08;;
30647;SDS011;17683;53.360;9.736;2023-04-15T07:59:06;42.95;;;28.38;;
30647;SDS011;17683;53.360;9.736;2023-04-15T08:01:33;46.55;;;29.90;;
30647;SDS011;17683;53.360;9.736;2023-04-15T08:03:59;53.70;;;29.98;;
30647;SDS011;17683;53.360;9.736;2023-04-15T08:06:25;52.88;;;29.83;;
30647;SDS011;17683;53.360;9.736;2023-04-15T08:08:51;54.25;;;30.05;;
30647;SDS011;17683;53.360;9.736;2023-04-15T08:11:18;50.47;;;29.70;;
30647;SDS011;17683;53.360;9.736;2023-04-15T08:13:45;51.10;;;31.92;;
30647;SDS011;17683;53.360;9.736;2023-04-15T08:18:51;47.33;;;29.40;;
30647;SDS011;17683;53.360;9.736;2023-04-15T08:21:19;51.65;;;28.98;;
30647;SDS011;17683;53.360;9.736;2023-04-15T08:23:46;52.70;;;31.20;;
30647;SDS011;17683;53.360;9.736;2023-04-15T08:26:14;57.30;;;31.40;;
30647;SDS011;17683;53.360;9.736;2023-04-15T08:28:40;49.80;;;31.02;;
30647;SDS011;17683;53.360;9.736;2023-04-15T08:31:07;54.13;;;29.85;;
30647;SDS011;17683;53.360;9.736;2023-04-15T08:33:33;51.25;;;31.80;;
30647;SDS011;17683;53.360;9.736;2023-04-15T08:35:59;52.63;;;32.15;;
30647;SDS011;17683;53.360;9.736;2023-04-15T08:38:24;49.53;;;31.02;;
30647;SDS011;17683;53.360;9.736;2023-04-15T08:40:50;50.83;;;29.67;;
30647;SDS011;17683;53.360;9.736;2023-04-15T08:43:26;52.78;;;31.48;;
30647;SDS011;17683;53.360;9.736;2023-04-15T08:45:57;49.45;;;31.45;;
30647;SDS011;17683;53.360;9.736;2023-04-15T08:48:26;55.92;;;34.83;;
30647;SDS011;17683;53.360;9.736;2023-04-15T08:50:53;58.40;;;32.30;;
30647;SDS011;17683;53.360;9.736;2023-04-15T08:53:19;54.33;;;33.13;;
30647;SDS011;17683;53.360;9.736;2023-04-15T08:55:45;52.75;;;33.42;;
30647;SDS011;17683;53.360;9.736;2023-04-15T08:58:16;48.05;;;30.83;;
30647;SDS011;17683;53.360;9.736;2023-04-15T09:00:43;55.33;;;34.17;;
30647;SDS011;17683;53.360;9.736;2023-04-15T09:03:10;54.75;;;32.03;;
30647;SDS011;17683;53.360;9.736;2023-04-15T09:05:35;60.42;;;33.85;;
30647;SDS011;17683;53.360;9.736;2023-04-15T09:08:02;59.78;;;35.92;;
30647;SDS011;17683;53.360;9.736;2023-04-15T09:10:29;50.88;;;31.92;;
30647;SDS011;17683;53.360;9.736;2023-04-15T09:12:56;53.47;;;33.78;;
30647;SDS011;17683;53.360;9.736;2023-04-15T09:15:23;55.40;;;34.33;;
30647;SDS011;17683;53.360;9.736;2023-04-15T09:17:50;59.35;;;33.63;;
30647;SDS011;17683;53.360;9.736;2023-04-15T09:20:16;57.45;;;35.75;;
30647;SDS011;17683;53.360;9.736;2023-04-15T09:22:45;55.50;;;35.35;;
30647;SDS011;17683;53.360;9.736;2023-04-15T09:27:49;56.20;;;36.38;;
30647;SDS011;17683;53.360;9.736;2023-04-15T09:30:16;60.95;;;38.47;;
30647;SDS011;17683;53.360;9.736;2023-04-15T09:32:52;62.22;;;37.63;;
30647;SDS011;17683;53.360;9.736;2023-04-15T09:35:27;65.55;;;38.47;;
30647;SDS011;17683;53.360;9.736;2023-04-15T09:38:00;62.63;;;38.17;;
30647;SDS011;17683;53.360;9.736;2023-04-15T09:43:01;65.22;;;39.55;;
30647;SDS011;17683;53.360;9.736;2023-04-15T09:45:28;63.05;;;37.40;;
30647;SDS011;17683;53.360;9.736;2023-04-15T09:47:54;72.75;;;43.17;;
30647;SDS011;17683;53.360;9.736;2023-04-15T09:50:27;71.00;;;42.90;;
30647;SDS011;17683;53.360;9.736;2023-04-15T09:52:53;66.75;;;39.65;;
30647;SDS011;17683;53.360;9.736;2023-04-15T09:55:20;66.18;;;38.28;;
30647;SDS011;17683;53.360;9.736;2023-04-15T09:57:46;64.30;;;38.95;;
30647;SDS011;17683;53.360;9.736;2023-04-15T10:00:12;60.92;;;37.53;;
30647;SDS011;17683;53.360;9.736;2023-04-15T10:02:39;58.00;;;36.55;;
30647;SDS011;17683;53.360;9.736;2023-04-15T10:05:06;60.17;;;36.53;;
30647;SDS011;17683;53.360;9.736;2023-04-15T10:07:36;62.30;;;38.55;;
30647;SDS011;17683;53.360;9.736;2023-04-15T10:10:02;60.78;;;38.92;;
30647;SDS011;17683;53.360;9.736;2023-04-15T10:12:29;65.20;;;40.30;;
30647;SDS011;17683;53.360;9.736;2023-04-15T10:14:58;64.28;;;39.70;;
30647;SDS011;17683;53.360;9.736;2023-04-15T10:17:29;66.35;;;40.38;;
30647;SDS011;17683;53.360;9.736;2023-04-15T10:20:00;58.78;;;37.97;;
30647;SDS011;17683;53.360;9.736;2023-04-15T10:22:27;64.95;;;40.40;;
30647;SDS011;17683;53.360;9.736;2023-04-15T10:24:53;65.03;;;41.50;;
30647;SDS011;17683;53.360;9.736;2023-04-15T10:27:21;66.03;;;40.17;;
30647;SDS011;17683;53.360;9.736;2023-04-15T10:29:50;60.45;;;39.17;;
30647;SDS011;17683;53.360;9.736;2023-04-15T10:32:19;61.00;;;38.35;;
30647;SDS011;17683;53.360;9.736;2023-04-15T10:34:49;61.03;;;38.88;;
30647;SDS011;17683;53.360;9.736;2023-04-15T10:37:32;66.03;;;40.42;;
30647;SDS011;17683;53.360;9.736;2023-04-15T10:40:23;60.92;;;38.15;;
30647;SDS011;17683;53.360;9.736;2023-04-15T10:42:47;60.80;;;38.58;;
30647;SDS011;17683;53.360;9.736;2023-04-15T10:45:17;58.92;;;36.78;;
30647;SDS011;17683;53.360;9.736;2023-04-15T10:47:43;65.47;;;38.00;;
30647;SDS011;17683;53.360;9.736;2023-04-15T10:50:09;65.25;;;38.90;;
30647;SDS011;17683;53.360;9.736;2023-04-15T10:52:36;59.30;;;37.90;;
30647;SDS011;17683;53.360;9.736;2023-04-15T10:57:40;56.13;;;38.22;;
30647;SDS011;17683;53.360;9.736;2023-04-15T11:05:08;60.53;;;37.72;;
30647;SDS011;17683;53.360;9.736;2023-04-15T11:12:38;60.90;;;36.22;;
30647;SDS011;17683;53.360;9.736;2023-04-15T11:18:08;57.55;;;37.28;;
30647;SDS011;17683;53.360;9.736;2023-04-15T11:20:35;54.50;;;35.35;;
30647;SDS011;17683;53.360;9.736;2023-04-15T11:23:03;55.55;;;35.35;;
30647;SDS011;17683;53.360;9.736;2023-04-15T11:25:32;56.55;;;36.42;;
30647;SDS011;17683;53.360;9.736;2023-04-15T11:28:00;50.67;;;35.22;;
30647;SDS011;17683;53.360;9.736;2023-04-15T11:30:30;54.75;;;35.10;;
30647;SDS011;17683;53.360;9.736;2023-04-15T11:32:58;55.10;;;36.80;;
30647;SDS011;17683;53.360;9.736;2023-04-15T11:35:29;59.63;;;36.05;;
30647;SDS011;17683;53.360;9.736;2023-04-15T11:37:55;47.85;;;33.72;;
30647;SDS011;17683;53.360;9.736;2023-04-15T11:40:22;52.22;;;33.58;;
30647;SDS011;17683;53.360;9.736;2023-04-15T11:43:03;51.70;;;34.33;;
30647;SDS011;17683;53.360;9.736;2023-04-15T11:45:33;51.13;;;33.47;;
30647;SDS011;17683;53.360;9.736;2023-04-15T11:48:10;53.42;;;35.03;;
30647;SDS011;17683;53.360;9.736;2023-04-15T11:50:37;45.78;;;33.00;;
30647;SDS011;17683;53.360;9.736;2023-04-15T11:53:05;46.65;;;33.80;;
30647;SDS011;17683;53.360;9.736;2023-04-15T11:58:12;51.42;;;34.10;;
30647;SDS011;17683;53.360;9.736;2023-04-15T12:00:40;46.28;;;31.52;;
30647;SDS011;17683;53.360;9.736;2023-04-15T12:03:10;44.35;;;30.85;;
30647;SDS011;17683;53.360;9.736;2023-04-15T12:12:05;41.90;;;30.13;;
30647;SDS011;17683;53.360;9.736;2023-04-15T12:14:09;44.20;;;28.83;;
30647;SDS011;17683;53.360;9.736;2023-04-15T12:16:53;36.97;;;27.25;;
30647;SDS011;17683;53.360;9.736;2023-04-15T12:19:37;46.72;;;31.88;;
30647;SDS011;17683;53.360;9.736;2023-04-15T12:22:05;48.33;;;31.42;;
30647;SDS011;17683;53.360;9.736;2023-04-15T12:24:35;48.53;;;32.50;;
30647;SDS011;17683;53.360;9.736;2023-04-15T12:27:03;44.60;;;32.10;;
30647;SDS011;17683;53.360;9.736;2023-04-15T12:29:33;43.83;;;30.92;;
30647;SDS011;17683;53.360;9.736;2023-04-15T12:34:40;38.20;;;26.35;;
30647;SDS011;17683;53.360;9.736;2023-04-15T12:39:43;32.80;;;23.60;;
30647;SDS011;17683;53.360;9.736;2023-04-15T12:42:10;37.67;;;26.33;;
30647;SDS011;17683;53.360;9.736;2023-04-15T12:44:36;31.13;;;22.90;;
30647;SDS011;17683;53.360;9.736;2023-04-15T12:47:03;35.28;;;24.92;;
30647;SDS011;17683;53.360;9.736;2023-04-15T12:49:29;31.58;;;23.38;;
30647;SDS011;17683;53.360;9.736;2023-04-15T12:51:56;34.13;;;23.13;;
30647;SDS011;17683;53.360;9.736;2023-04-15T12:54:25;32.92;;;22.80;;
30647;SDS011;17683;53.360;9.736;2023-04-15T12:56:52;26.30;;;20.15;;
30647;SDS011;17683;53.360;9.736;2023-04-15T12:59:18;21.33;;;17.30;;
30647;SDS011;17683;53.360;9.736;2023-04-15T13:01:45;27.13;;;19.23;;
30647;SDS011;17683;53.360;9.736;2023-04-15T13:04:12;21.98;;;14.63;;
30647;SDS011;17683;53.360;9.736;2023-04-15T13:06:39;18.10;;;14.80;;
30647;SDS011;17683;53.360;9.736;2023-04-15T13:09:05;17.95;;;13.43;;
30647;SDS011;17683;53.360;9.736;2023-04-15T13:11:31;16.38;;;12.88;;
30647;SDS011;17683;53.360;9.736;2023-04-15T13:14:01;16.42;;;13.57;;
30647;SDS011;17683;53.360;9.736;2023-04-15T13:16:28;16.15;;;12.50;;
30647;SDS011;17683;53.360;9.736;2023-04-15T13:18:54;17.08;;;13.20;;
30647;SDS011;17683;53.360;9.736;2023-04-15T13:21:20;16.75;;;13.07;;
30647;SDS011;17683;53.360;9.736;2023-04-15T13:23:47;15.15;;;12.38;;
30647;SDS011;17683;53.360;9.736;2023-04-15T13:26:14;18.38;;;13.02;;
30647;SDS011;17683;53.360;9.736;2023-04-15T13:28:40;16.25;;;13.20;;
30647;SDS011;17683;53.360;9.736;2023-04-15T13:31:05;20.58;;;13.10;;
30647;SDS011;17683;53.360;9.736;2023-04-15T13:33:31;18.00;;;13.60;;
30647;SDS011;17683;53.360;9.736;2023-04-15T13:35:57;18.90;;;14.07;;
30647;SDS011;17683;53.360;9.736;2023-04-15T13:38:26;14.48;;;12.27;;
30647;SDS011;17683;53.360;9.736;2023-04-15T13:40:51;16.73;;;11.65;;
30647;SDS011;17683;53.360;9.736;2023-04-15T13:43:17;17.45;;;12.23;;
30647;SDS011;17683;53.360;9.736;2023-04-15T13:45:43;15.18;;;11.60;;
30647;SDS011;17683;53.360;9.736;2023-04-15T13:48:09;17.17;;;11.95;;
30647;SDS011;17683;53.360;9.736;2023-04-15T13:50:34;15.90;;;12.07;;
30647;SDS011;17683;53.360;9.736;2023-04-15T13:53:00;14.52;;;11.23;;
30647;SDS011;17683;53.360;9.736;2023-04-15T13:55:26;17.60;;;12.52;;
30647;SDS011;17683;53.360;9.736;2023-04-15T13:57:52;14.85;;;12.45;;
30647;SDS011;17683;53.360;9.736;2023-04-15T14:00:18;13.48;;;11.48;;
30647;SDS011;17683;53.360;9.736;2023-04-15T14:02:43;16.10;;;12.30;;
30647;SDS011;17683;53.360;9.736;2023-04-15T14:05:09;17.05;;;11.55;;
30647;SDS011;17683;53.360;9.736;2023-04-15T14:07:35;14.45;;;11.40;;
30647;SDS011;17683;53.360;9.736;2023-04-15T14:10:01;18.33;;;12.27;;
30647;SDS011;17683;53.360;9.736;2023-04-15T14:12:27;17.23;;;12.10;;
30647;SDS011;17683;53.360;9.736;2023-04-15T14:14:53;13.93;;;11.30;;
30647;SDS011;17683;53.360;9.736;2023-04-15T14:17:19;17.33;;;12.38;;
30647;SDS011;17683;53.360;9.736;2023-04-15T14:19:44;19.48;;;12.20;;
30647;SDS011;17683;53.360;9.736;2023-04-15T14:22:10;20.95;;;14.68;;
30647;SDS011;17683;53.360;9.736;2023-04-15T14:24:36;18.42;;;12.65;;
30647;SDS011;17683;53.360;9.736;2023-04-15T14:27:02;16.80;;;11.05;;
30647;SDS011;17683;53.360;9.736;2023-04-15T14:29:27;17.55;;;12.20;;
30647;SDS011;17683;53.360;9.736;2023-04-15T14:31:53;14.20;;;11.02;;
30647;SDS011;17683;53.360;9.736;2023-04-15T14:34:21;15.40;;;11.95;;
30647;SDS011;17683;53.360;9.736;2023-04-15T14:36:49;17.77;;;12.38;;
30647;SDS011;17683;53.360;9.736;2023-04-15T14:39:15;16.20;;;12.95;;
30647;SDS011;17683;53.360;9.736;2023-04-15T14:41:41;16.73;;;12.75;;
30647;SDS011;17683;53.360;9.736;2023-04-15T14:44:07;14.07;;;10.77;;
30647;SDS011;17683;53.360;9.736;2023-04-15T14:46:33;17.00;;;11.13;;
30647;SDS011;17683;53.360;9.736;2023-04-15T14:48:59;13.93;;;10.98;;
30647;SDS011;17683;53.360;9.736;2023-04-15T14:51:25;13.82;;;9.63;;
30647;SDS011;17683;53.360;9.736;2023-04-15T14:53:51;14.70;;;10.77;;
30647;SDS011;17683;53.360;9.736;2023-04-15T14:56:17;14.73;;;11.20;;
30647;SDS011;17683;53.360;9.736;2023-04-15T14:58:42;12.48;;;9.75;;
30647;SDS011;17683;53.360;9.736;2023-04-15T15:01:08;13.95;;;10.50;;
30647;SDS011;17683;53.360;9.736;2023-04-15T15:03:34;11.27;;;9.80;;